This is the latest recevied weather packets stored in our database for station/object HA5CD-6. If no packets are shown the sender has not sent any weather packets the latest 10 day(s).
| Time | Temp. | Humidity | Pressure | Rain* | Wind** | Luminosity | Snow |
|---|---|---|---|---|---|---|---|
| 1777690297 | 10.56° C | 47% | 1001 hPa | - | - | - | - |
| 1777689697 | 10.56° C | 48% | 1001 hPa | - | - | - | - |
| 1777689097 | 10° C | 51% | 1001 hPa | - | - | - | - |
| 1777688496 | 10.56° C | 48% | 1001 hPa | - | - | - | - |
| 1777687896 | 10.56° C | 47% | 1001 hPa | - | - | - | - |
| 1777687296 | 10.56° C | 48% | 1001 hPa | - | - | - | - |
| 1777686695 | 11.67° C | 46% | 1001 hPa | - | - | - | - |
| 1777686095 | 11.11° C | 45% | 1001 hPa | - | - | - | - |
| 1777685495 | 11.11° C | 45% | 1001 hPa | - | - | - | - |
| 1777684895 | 10.56° C | 48% | 1001 hPa | - | - | - | - |
| 1777684295 | 10° C | 51% | 1001 hPa | - | - | - | - |
| 1777683695 | 10° C | 51% | 1001 hPa | - | - | - | - |
| 1777683095 | 10° C | 50% | 1001 hPa | - | - | - | - |
| 1777682495 | 10° C | 51% | 1002 hPa | - | - | - | - |
| 1777681895 | 10° C | 53% | 1002 hPa | - | - | - | - |
| 1777681295 | 10° C | 52% | 1002 hPa | - | - | - | - |
| 1777680695 | 10.56° C | 49% | 1001 hPa | - | - | - | - |
| 1777680094 | 11.11° C | 47% | 1002 hPa | - | - | - | - |
| 1777679494 | 11.11° C | 47% | 1001 hPa | - | - | - | - |
| 1777678894 | 11.67° C | 45% | 1002 hPa | - | - | - | - |
| 1777678294 | 11.11° C | 46% | 1002 hPa | - | - | - | - |
| 1777677694 | 12.22° C | 44% | 1001 hPa | - | - | - | - |
| 1777677094 | 12.22° C | 43% | 1002 hPa | - | - | - | - |
| 1777676494 | 12.22° C | 43% | 1002 hPa | - | - | - | - |
| 1777675894 | 12.22° C | 43% | 1002 hPa | - | - | - | - |
* Rain since midnight (hover to see other rain measurements)
** Current wind speed in m/s (hover to see current wind gust speed)